This is the latest recevied weather packets stored in our database for station/object KB1QVF. If no packets are shown the sender has not sent any weather packets the latest 10 day(s).
| Time | Temp. | Humidity | Pressure | Rain* | Wind** | Luminosity | Snow |
|---|---|---|---|---|---|---|---|
| 1777650615 | 11.67° C | 50% | 1012.5 hPa | 0 mm | - | 320 W/m² | - |
| 1777650312 | 12.22° C | 52% | 1012.9 hPa | 0 mm | - | 230 W/m² | - |
| 1777650009 | 11.67° C | 53% | 1012.5 hPa | 0 mm | - | 843 W/m² | - |
| 1777649707 | 11.11° C | 57% | 1012.6 hPa | 0 mm | - | 876 W/m² | - |
| 1777649402 | 11.11° C | 57% | 1012.5 hPa | 0 mm | - | 841 W/m² | - |
| 1777649100 | 10.56° C | 59% | 1012.8 hPa | 0 mm | - | 813 W/m² | - |
| 1777648797 | 10.56° C | 60% | 1012.9 hPa | 0 mm | - | 287 W/m² | - |
| 1777648494 | 10.56° C | 58% | 1012.8 hPa | 0 mm | - | 266 W/m² | - |
| 1777648190 | 11.11° C | 57% | 1012.8 hPa | 0 mm | - | 253 W/m² | - |
| 1777647886 | 10.56° C | 58% | 1012.9 hPa | 0 mm | - | 449 W/m² | - |
| 1777647582 | 10.56° C | 58% | 1012.6 hPa | 0 mm | - | 389 W/m² | - |
| 1777647279 | 11.11° C | 57% | 1013 hPa | 0 mm | - | 289 W/m² | - |
| 1777646977 | 10.56° C | 58% | 1012.9 hPa | 0 mm | - | 448 W/m² | - |
| 1777646672 | 10.56° C | 60% | 1012.9 hPa | 0 mm | - | 277 W/m² | - |
| 1777646368 | 11.11° C | 57% | 1012.6 hPa | 0 mm | - | 779 W/m² | - |
| 1777646065 | 10° C | 64% | 1012.9 hPa | 0 mm | - | 745 W/m² | - |
| 1777645761 | 9.44° C | 62% | 1012.9 hPa | 0 mm | - | 774 W/m² | - |
| 1777645459 | 9.44° C | 62% | 1012.8 hPa | 0 mm | - | 207 W/m² | - |
| 1777645154 | 10.56° C | 60% | 1013 hPa | 0 mm | - | 459 W/m² | - |
| 1777644851 | 9.44° C | 66% | 1013.1 hPa | 0 mm | - | 369 W/m² | - |
| 1777644549 | 9.44° C | 65% | 1013 hPa | 0 mm | - | 349 W/m² | - |
| 1777644244 | 9.44° C | 66% | 1013 hPa | 0 mm | - | 286 W/m² | - |
| 1777643941 | 8.89° C | 67% | 1012.9 hPa | 0 mm | - | 268 W/m² | - |
| 1777643639 | 8.89° C | 67% | 1013 hPa | 0 mm | - | 242 W/m² | - |
| 1777643336 | 8.89° C | 69% | 1013 hPa | 0 mm | - | 202 W/m² | - |
* Rain latest hour (hover to see other rain measurements)
** Current wind speed in m/s (hover to see current wind gust speed)